sensor_id;sensor_type;location;lat;lon;timestamp;P1;durP1;ratioP1;P2;durP2;ratioP2
80400;SDS011;69727;53.132;8.230;2023-11-19T00:00:39;23.17;;;11.87;;
80400;SDS011;69727;53.132;8.230;2023-11-19T00:03:05;23.97;;;11.47;;
80400;SDS011;69727;53.132;8.230;2023-11-19T00:05:30;26.15;;;12.15;;
80400;SDS011;69727;53.132;8.230;2023-11-19T00:07:56;25.40;;;12.37;;
80400;SDS011;69727;53.132;8.230;2023-11-19T00:10:21;24.40;;;11.90;;
80400;SDS011;69727;53.132;8.230;2023-11-19T00:12:48;22.98;;;11.27;;
80400;SDS011;69727;53.132;8.230;2023-11-19T00:15:14;24.83;;;11.73;;
80400;SDS011;69727;53.132;8.230;2023-11-19T00:17:41;25.15;;;12.15;;
80400;SDS011;69727;53.132;8.230;2023-11-19T00:20:10;25.50;;;12.10;;
80400;SDS011;69727;53.132;8.230;2023-11-19T00:22:42;25.30;;;12.57;;
80400;SDS011;69727;53.132;8.230;2023-11-19T00:25:08;24.02;;;12.00;;
80400;SDS011;69727;53.132;8.230;2023-11-19T00:27:34;25.58;;;12.23;;
80400;SDS011;69727;53.132;8.230;2023-11-19T00:30:00;27.40;;;11.90;;
80400;SDS011;69727;53.132;8.230;2023-11-19T00:32:25;24.57;;;11.57;;
80400;SDS011;69727;53.132;8.230;2023-11-19T00:34:51;22.80;;;12.20;;
80400;SDS011;69727;53.132;8.230;2023-11-19T00:37:16;24.75;;;12.18;;
80400;SDS011;69727;53.132;8.230;2023-11-19T00:39:42;26.23;;;11.75;;
80400;SDS011;69727;53.132;8.230;2023-11-19T00:44:36;22.97;;;10.80;;
80400;SDS011;69727;53.132;8.230;2023-11-19T00:47:02;21.80;;;10.93;;
80400;SDS011;69727;53.132;8.230;2023-11-19T00:49:27;24.83;;;12.18;;
80400;SDS011;69727;53.132;8.230;2023-11-19T00:51:53;25.10;;;12.60;;
80400;SDS011;69727;53.132;8.230;2023-11-19T00:54:18;24.97;;;12.40;;
80400;SDS011;69727;53.132;8.230;2023-11-19T00:56:44;24.33;;;11.88;;
80400;SDS011;69727;53.132;8.230;2023-11-19T00:59:10;27.20;;;12.35;;
80400;SDS011;69727;53.132;8.230;2023-11-19T01:01:35;26.83;;;12.35;;
80400;SDS011;69727;53.132;8.230;2023-11-19T01:04:01;30.15;;;12.93;;
80400;SDS011;69727;53.132;8.230;2023-11-19T01:06:29;26.00;;;11.97;;
80400;SDS011;69727;53.132;8.230;2023-11-19T01:08:56;22.80;;;10.80;;
80400;SDS011;69727;53.132;8.230;2023-11-19T01:11:24;22.63;;;10.02;;
80400;SDS011;69727;53.132;8.230;2023-11-19T01:13:50;20.92;;;9.43;;
80400;SDS011;69727;53.132;8.230;2023-11-19T01:16:17;21.13;;;10.48;;
80400;SDS011;69727;53.132;8.230;2023-11-19T01:18:47;19.05;;;9.25;;
80400;SDS011;69727;53.132;8.230;2023-11-19T01:21:13;18.90;;;9.50;;
80400;SDS011;69727;53.132;8.230;2023-11-19T01:23:41;18.80;;;8.70;;
80400;SDS011;69727;53.132;8.230;2023-11-19T01:26:10;21.27;;;9.95;;
80400;SDS011;69727;53.132;8.230;2023-11-19T01:28:37;21.63;;;9.57;;
80400;SDS011;69727;53.132;8.230;2023-11-19T01:31:04;19.63;;;9.48;;
80400;SDS011;69727;53.132;8.230;2023-11-19T01:33:30;21.17;;;9.52;;
80400;SDS011;69727;53.132;8.230;2023-11-19T01:35:55;23.97;;;10.87;;
80400;SDS011;69727;53.132;8.230;2023-11-19T01:38:23;23.88;;;11.15;;
80400;SDS011;69727;53.132;8.230;2023-11-19T01:40:49;25.15;;;11.68;;
80400;SDS011;69727;53.132;8.230;2023-11-19T01:43:30;23.87;;;10.97;;
80400;SDS011;69727;53.132;8.230;2023-11-19T01:46:00;24.95;;;11.55;;
80400;SDS011;69727;53.132;8.230;2023-11-19T01:48:26;23.75;;;10.93;;
80400;SDS011;69727;53.132;8.230;2023-11-19T01:50:52;20.98;;;11.30;;
80400;SDS011;69727;53.132;8.230;2023-11-19T01:53:18;24.05;;;10.43;;
80400;SDS011;69727;53.132;8.230;2023-11-19T01:55:45;24.20;;;10.85;;
80400;SDS011;69727;53.132;8.230;2023-11-19T01:58:12;22.15;;;11.05;;
80400;SDS011;69727;53.132;8.230;2023-11-19T02:00:38;21.95;;;10.63;;
80400;SDS011;69727;53.132;8.230;2023-11-19T02:03:04;24.02;;;10.35;;
80400;SDS011;69727;53.132;8.230;2023-11-19T02:05:33;21.20;;;9.77;;
80400;SDS011;69727;53.132;8.230;2023-11-19T02:08:00;24.52;;;11.18;;
80400;SDS011;69727;53.132;8.230;2023-11-19T02:10:26;22.00;;;10.68;;
80400;SDS011;69727;53.132;8.230;2023-11-19T02:12:51;24.95;;;10.95;;
80400;SDS011;69727;53.132;8.230;2023-11-19T02:15:17;24.33;;;10.65;;
80400;SDS011;69727;53.132;8.230;2023-11-19T02:17:46;23.10;;;11.38;;
80400;SDS011;69727;53.132;8.230;2023-11-19T02:20:12;27.73;;;11.40;;
80400;SDS011;69727;53.132;8.230;2023-11-19T02:22:39;27.67;;;11.00;;
80400;SDS011;69727;53.132;8.230;2023-11-19T02:25:07;24.35;;;11.50;;
80400;SDS011;69727;53.132;8.230;2023-11-19T02:30:06;25.90;;;12.50;;
80400;SDS011;69727;53.132;8.230;2023-11-19T02:32:34;21.38;;;11.20;;
80400;SDS011;69727;53.132;8.230;2023-11-19T02:35:01;25.08;;;12.50;;
80400;SDS011;69727;53.132;8.230;2023-11-19T02:37:26;23.83;;;10.85;;
80400;SDS011;69727;53.132;8.230;2023-11-19T02:39:53;24.92;;;11.23;;
80400;SDS011;69727;53.132;8.230;2023-11-19T02:42:18;26.98;;;11.40;;
80400;SDS011;69727;53.132;8.230;2023-11-19T02:44:44;29.17;;;12.32;;
80400;SDS011;69727;53.132;8.230;2023-11-19T02:47:10;31.30;;;12.80;;
80400;SDS011;69727;53.132;8.230;2023-11-19T02:49:36;26.42;;;12.05;;
80400;SDS011;69727;53.132;8.230;2023-11-19T02:52:02;27.88;;;12.60;;
80400;SDS011;69727;53.132;8.230;2023-11-19T02:54:30;27.20;;;11.75;;
80400;SDS011;69727;53.132;8.230;2023-11-19T02:56:59;27.92;;;11.63;;
80400;SDS011;69727;53.132;8.230;2023-11-19T02:59:26;26.40;;;11.52;;
80400;SDS011;69727;53.132;8.230;2023-11-19T03:01:53;23.70;;;10.88;;
80400;SDS011;69727;53.132;8.230;2023-11-19T03:04:20;26.02;;;10.93;;
80400;SDS011;69727;53.132;8.230;2023-11-19T03:06:45;26.30;;;11.20;;
80400;SDS011;69727;53.132;8.230;2023-11-19T03:09:11;25.23;;;10.27;;
80400;SDS011;69727;53.132;8.230;2023-11-19T03:11:37;22.83;;;11.32;;
80400;SDS011;69727;53.132;8.230;2023-11-19T03:14:03;25.58;;;10.95;;
80400;SDS011;69727;53.132;8.230;2023-11-19T03:16:28;26.43;;;11.30;;
80400;SDS011;69727;53.132;8.230;2023-11-19T03:18:54;25.92;;;11.40;;
80400;SDS011;69727;53.132;8.230;2023-11-19T03:21:26;22.90;;;10.35;;
80400;SDS011;69727;53.132;8.230;2023-11-19T03:23:53;29.10;;;11.02;;
80400;SDS011;69727;53.132;8.230;2023-11-19T03:26:18;24.00;;;10.00;;
80400;SDS011;69727;53.132;8.230;2023-11-19T03:28:43;25.10;;;10.13;;
80400;SDS011;69727;53.132;8.230;2023-11-19T03:31:09;23.20;;;11.03;;
80400;SDS011;69727;53.132;8.230;2023-11-19T03:33:34;26.80;;;11.63;;
80400;SDS011;69727;53.132;8.230;2023-11-19T03:36:00;26.97;;;9.70;;
80400;SDS011;69727;53.132;8.230;2023-11-19T03:38:25;29.42;;;10.73;;
80400;SDS011;69727;53.132;8.230;2023-11-19T03:40:50;24.40;;;9.43;;
80400;SDS011;69727;53.132;8.230;2023-11-19T03:43:16;32.15;;;10.48;;
80400;SDS011;69727;53.132;8.230;2023-11-19T03:45:41;27.17;;;10.40;;
80400;SDS011;69727;53.132;8.230;2023-11-19T03:48:07;26.60;;;10.40;;
80400;SDS011;69727;53.132;8.230;2023-11-19T03:50:32;25.00;;;9.33;;
80400;SDS011;69727;53.132;8.230;2023-11-19T03:52:58;27.38;;;11.13;;
80400;SDS011;69727;53.132;8.230;2023-11-19T03:55:24;25.90;;;9.93;;
80400;SDS011;69727;53.132;8.230;2023-11-19T03:57:49;31.37;;;10.70;;
80400;SDS011;69727;53.132;8.230;2023-11-19T04:00:14;34.70;;;10.17;;
80400;SDS011;69727;53.132;8.230;2023-11-19T04:02:40;26.88;;;10.63;;
80400;SDS011;69727;53.132;8.230;2023-11-19T04:05:07;33.05;;;10.20;;
80400;SDS011;69727;53.132;8.230;2023-11-19T04:07:32;28.88;;;10.98;;
80400;SDS011;69727;53.132;8.230;2023-11-19T04:09:58;28.70;;;9.82;;
80400;SDS011;69727;53.132;8.230;2023-11-19T04:12:24;31.40;;;9.73;;
80400;SDS011;69727;53.132;8.230;2023-11-19T04:14:49;24.23;;;8.52;;
80400;SDS011;69727;53.132;8.230;2023-11-19T04:17:15;27.15;;;9.07;;
80400;SDS011;69727;53.132;8.230;2023-11-19T04:19:40;27.10;;;8.33;;
80400;SDS011;69727;53.132;8.230;2023-11-19T04:22:09;28.73;;;8.90;;
80400;SDS011;69727;53.132;8.230;2023-11-19T04:24:36;27.13;;;8.68;;
80400;SDS011;69727;53.132;8.230;2023-11-19T04:27:02;20.00;;;7.97;;
80400;SDS011;69727;53.132;8.230;2023-11-19T04:29:29;34.55;;;8.95;;
80400;SDS011;69727;53.132;8.230;2023-11-19T04:31:55;26.10;;;8.18;;
80400;SDS011;69727;53.132;8.230;2023-11-19T04:34:21;28.83;;;9.10;;
80400;SDS011;69727;53.132;8.230;2023-11-19T04:36:46;26.83;;;7.45;;
80400;SDS011;69727;53.132;8.230;2023-11-19T04:39:11;20.70;;;6.97;;
80400;SDS011;69727;53.132;8.230;2023-11-19T04:41:48;29.77;;;7.85;;
80400;SDS011;69727;53.132;8.230;2023-11-19T04:44:15;22.00;;;7.43;;
80400;SDS011;69727;53.132;8.230;2023-11-19T04:46:41;33.05;;;8.20;;
80400;SDS011;69727;53.132;8.230;2023-11-19T04:49:09;21.00;;;8.05;;
80400;SDS011;69727;53.132;8.230;2023-11-19T04:51:39;29.58;;;7.60;;
80400;SDS011;69727;53.132;8.230;2023-11-19T04:54:06;27.45;;;7.70;;
80400;SDS011;69727;53.132;8.230;2023-11-19T04:56:33;27.52;;;7.25;;
80400;SDS011;69727;53.132;8.230;2023-11-19T04:58:59;22.75;;;6.20;;
80400;SDS011;69727;53.132;8.230;2023-11-19T05:01:24;23.87;;;6.83;;
80400;SDS011;69727;53.132;8.230;2023-11-19T05:03:50;30.58;;;6.88;;
80400;SDS011;69727;53.132;8.230;2023-11-19T05:06:16;24.00;;;6.97;;
80400;SDS011;69727;53.132;8.230;2023-11-19T05:08:41;22.07;;;6.93;;
80400;SDS011;69727;53.132;8.230;2023-11-19T05:11:06;23.77;;;6.27;;
80400;SDS011;69727;53.132;8.230;2023-11-19T05:13:32;19.40;;;6.60;;
80400;SDS011;69727;53.132;8.230;2023-11-19T05:15:57;22.13;;;6.17;;
80400;SDS011;69727;53.132;8.230;2023-11-19T05:18:22;22.10;;;6.00;;
80400;SDS011;69727;53.132;8.230;2023-11-19T05:20:48;20.48;;;5.47;;
80400;SDS011;69727;53.132;8.230;2023-11-19T05:23:13;21.80;;;5.77;;
80400;SDS011;69727;53.132;8.230;2023-11-19T05:25:39;28.70;;;5.63;;
80400;SDS011;69727;53.132;8.230;2023-11-19T05:28:04;25.48;;;5.97;;
80400;SDS011;69727;53.132;8.230;2023-11-19T05:30:30;27.77;;;4.60;;
80400;SDS011;69727;53.132;8.230;2023-11-19T05:32:55;27.75;;;5.40;;
80400;SDS011;69727;53.132;8.230;2023-11-19T05:35:21;25.17;;;5.20;;
80400;SDS011;69727;53.132;8.230;2023-11-19T05:37:46;28.40;;;5.13;;
80400;SDS011;69727;53.132;8.230;2023-11-19T05:40:11;23.40;;;4.43;;
80400;SDS011;69727;53.132;8.230;2023-11-19T05:42:42;26.42;;;4.80;;
80400;SDS011;69727;53.132;8.230;2023-11-19T05:45:10;17.67;;;3.90;;
80400;SDS011;69727;53.132;8.230;2023-11-19T05:47:36;26.38;;;4.90;;
80400;SDS011;69727;53.132;8.230;2023-11-19T05:50:02;31.27;;;5.40;;
80400;SDS011;69727;53.132;8.230;2023-11-19T05:52:28;20.67;;;4.20;;
80400;SDS011;69727;53.132;8.230;2023-11-19T05:54:58;28.73;;;5.47;;
80400;SDS011;69727;53.132;8.230;2023-11-19T05:57:24;23.35;;;4.88;;
80400;SDS011;69727;53.132;8.230;2023-11-19T05:59:50;24.58;;;6.13;;
80400;SDS011;69727;53.132;8.230;2023-11-19T06:02:16;24.55;;;4.88;;
80400;SDS011;69727;53.132;8.230;2023-11-19T06:04:41;22.45;;;4.65;;
80400;SDS011;69727;53.132;8.230;2023-11-19T06:07:09;28.77;;;5.00;;
80400;SDS011;69727;53.132;8.230;2023-11-19T06:09:34;27.25;;;4.65;;
80400;SDS011;69727;53.132;8.230;2023-11-19T06:12:00;19.73;;;3.87;;
80400;SDS011;69727;53.132;8.230;2023-11-19T06:14:27;25.77;;;4.75;;
80400;SDS011;69727;53.132;8.230;2023-11-19T06:16:52;25.08;;;4.65;;
80400;SDS011;69727;53.132;8.230;2023-11-19T06:19:18;41.53;;;5.80;;
80400;SDS011;69727;53.132;8.230;2023-11-19T06:21:43;31.50;;;5.55;;
80400;SDS011;69727;53.132;8.230;2023-11-19T06:24:09;24.83;;;5.13;;
80400;SDS011;69727;53.132;8.230;2023-11-19T06:26:34;34.70;;;4.83;;
80400;SDS011;69727;53.132;8.230;2023-11-19T06:29:00;32.30;;;4.87;;
80400;SDS011;69727;53.132;8.230;2023-11-19T06:31:25;32.28;;;5.43;;
80400;SDS011;69727;53.132;8.230;2023-11-19T06:33:51;21.52;;;4.68;;
80400;SDS011;69727;53.132;8.230;2023-11-19T06:36:16;25.40;;;4.50;;
80400;SDS011;69727;53.132;8.230;2023-11-19T06:38:42;19.80;;;4.07;;
80400;SDS011;69727;53.132;8.230;2023-11-19T06:41:08;31.08;;;5.50;;
80400;SDS011;69727;53.132;8.230;2023-11-19T06:43:37;30.10;;;4.53;;
80400;SDS011;69727;53.132;8.230;2023-11-19T06:46:02;30.65;;;4.80;;
80400;SDS011;69727;53.132;8.230;2023-11-19T06:48:31;31.65;;;5.50;;
80400;SDS011;69727;53.132;8.230;2023-11-19T06:50:59;27.42;;;4.57;;
80400;SDS011;69727;53.132;8.230;2023-11-19T06:53:25;26.58;;;5.20;;
80400;SDS011;69727;53.132;8.230;2023-11-19T06:55:50;29.38;;;5.28;;
80400;SDS011;69727;53.132;8.230;2023-11-19T06:58:15;27.25;;;4.20;;
80400;SDS011;69727;53.132;8.230;2023-11-19T07:00:43;31.30;;;5.32;;
80400;SDS011;69727;53.132;8.230;2023-11-19T07:03:08;34.33;;;5.53;;
80400;SDS011;69727;53.132;8.230;2023-11-19T07:05:35;28.88;;;5.70;;
80400;SDS011;69727;53.132;8.230;2023-11-19T07:08:03;37.10;;;5.05;;
80400;SDS011;69727;53.132;8.230;2023-11-19T07:10:30;36.05;;;5.93;;
80400;SDS011;69727;53.132;8.230;2023-11-19T07:12:56;26.83;;;5.20;;
80400;SDS011;69727;53.132;8.230;2023-11-19T07:15:21;34.17;;;5.45;;
80400;SDS011;69727;53.132;8.230;2023-11-19T07:17:50;31.93;;;5.77;;
80400;SDS011;69727;53.132;8.230;2023-11-19T07:22:42;29.43;;;5.23;;
80400;SDS011;69727;53.132;8.230;2023-11-19T07:25:10;29.38;;;4.55;;
80400;SDS011;69727;53.132;8.230;2023-11-19T07:27:39;29.55;;;4.60;;
80400;SDS011;69727;53.132;8.230;2023-11-19T07:30:05;24.75;;;4.85;;
80400;SDS011;69727;53.132;8.230;2023-11-19T07:32:34;31.25;;;4.32;;
80400;SDS011;69727;53.132;8.230;2023-11-19T07:34:59;29.17;;;4.30;;
80400;SDS011;69727;53.132;8.230;2023-11-19T07:37:25;29.57;;;5.83;;
80400;SDS011;69727;53.132;8.230;2023-11-19T07:39:50;19.67;;;4.03;;
80400;SDS011;69727;53.132;8.230;2023-11-19T07:42:16;31.30;;;5.70;;
80400;SDS011;69727;53.132;8.230;2023-11-19T07:44:42;22.40;;;4.30;;
80400;SDS011;69727;53.132;8.230;2023-11-19T07:47:08;34.75;;;4.45;;
80400;SDS011;69727;53.132;8.230;2023-11-19T07:49:34;32.97;;;5.13;;
80400;SDS011;69727;53.132;8.230;2023-11-19T07:51:59;26.15;;;3.80;;
80400;SDS011;69727;53.132;8.230;2023-11-19T07:54:25;33.75;;;5.38;;
80400;SDS011;69727;53.132;8.230;2023-11-19T07:56:50;29.48;;;4.95;;
80400;SDS011;69727;53.132;8.230;2023-11-19T07:59:16;28.70;;;4.97;;
80400;SDS011;69727;53.132;8.230;2023-11-19T08:01:41;31.40;;;5.13;;
80400;SDS011;69727;53.132;8.230;2023-11-19T08:04:06;22.83;;;4.33;;
80400;SDS011;69727;53.132;8.230;2023-11-19T08:06:32;37.50;;;5.13;;
80400;SDS011;69727;53.132;8.230;2023-11-19T08:08:57;31.20;;;4.47;;
80400;SDS011;69727;53.132;8.230;2023-11-19T08:11:23;29.80;;;5.18;;
80400;SDS011;69727;53.132;8.230;2023-11-19T08:13:49;23.67;;;4.90;;
80400;SDS011;69727;53.132;8.230;2023-11-19T08:16:14;30.90;;;5.50;;
80400;SDS011;69727;53.132;8.230;2023-11-19T08:18:43;35.85;;;6.53;;
80400;SDS011;69727;53.132;8.230;2023-11-19T08:21:08;29.10;;;4.40;;
80400;SDS011;69727;53.132;8.230;2023-11-19T08:23:34;27.60;;;4.28;;
80400;SDS011;69727;53.132;8.230;2023-11-19T08:25:59;27.20;;;4.43;;
80400;SDS011;69727;53.132;8.230;2023-11-19T08:28:25;23.00;;;4.63;;
80400;SDS011;69727;53.132;8.230;2023-11-19T08:30:50;28.80;;;6.05;;
80400;SDS011;69727;53.132;8.230;2023-11-19T08:33:15;22.60;;;4.93;;
80400;SDS011;69727;53.132;8.230;2023-11-19T08:35:42;31.45;;;4.90;;
80400;SDS011;69727;53.132;8.230;2023-11-19T08:38:07;25.55;;;4.13;;
80400;SDS011;69727;53.132;8.230;2023-11-19T08:40:32;24.70;;;4.53;;
80400;SDS011;69727;53.132;8.230;2023-11-19T08:42:58;32.87;;;4.47;;
80400;SDS011;69727;53.132;8.230;2023-11-19T08:45:23;27.60;;;4.23;;
80400;SDS011;69727;53.132;8.230;2023-11-19T08:47:50;26.60;;;3.80;;
80400;SDS011;69727;53.132;8.230;2023-11-19T08:50:15;25.73;;;4.00;;
80400;SDS011;69727;53.132;8.230;2023-11-19T08:52:41;23.73;;;4.15;;
80400;SDS011;69727;53.132;8.230;2023-11-19T08:55:06;25.03;;;3.87;;
80400;SDS011;69727;53.132;8.230;2023-11-19T08:57:32;24.00;;;3.38;;
80400;SDS011;69727;53.132;8.230;2023-11-19T09:00:00;20.27;;;4.30;;
80400;SDS011;69727;53.132;8.230;2023-11-19T09:02:26;22.58;;;5.40;;
80400;SDS011;69727;53.132;8.230;2023-11-19T09:04:51;28.48;;;4.38;;
80400;SDS011;69727;53.132;8.230;2023-11-19T09:07:16;25.90;;;4.30;;
80400;SDS011;69727;53.132;8.230;2023-11-19T09:09:42;29.73;;;5.03;;
80400;SDS011;69727;53.132;8.230;2023-11-19T09:12:08;22.67;;;3.67;;
80400;SDS011;69727;53.132;8.230;2023-11-19T09:14:34;24.73;;;4.30;;
80400;SDS011;69727;53.132;8.230;2023-11-19T09:16:59;28.90;;;6.27;;
80400;SDS011;69727;53.132;8.230;2023-11-19T09:19:25;36.13;;;4.55;;
80400;SDS011;69727;53.132;8.230;2023-11-19T09:21:53;27.00;;;6.53;;
80400;SDS011;69727;53.132;8.230;2023-11-19T09:24:19;18.70;;;3.67;;
80400;SDS011;69727;53.132;8.230;2023-11-19T09:26:44;29.67;;;4.13;;
80400;SDS011;69727;53.132;8.230;2023-11-19T09:29:09;28.27;;;4.13;;
80400;SDS011;69727;53.132;8.230;2023-11-19T09:31:37;29.85;;;4.03;;
80400;SDS011;69727;53.132;8.230;2023-11-19T09:34:03;22.25;;;3.38;;
80400;SDS011;69727;53.132;8.230;2023-11-19T09:36:28;25.23;;;4.18;;
80400;SDS011;69727;53.132;8.230;2023-11-19T09:38:54;31.77;;;5.43;;
80400;SDS011;69727;53.132;8.230;2023-11-19T09:41:19;21.63;;;4.72;;
80400;SDS011;69727;53.132;8.230;2023-11-19T09:43:45;26.93;;;4.30;;
80400;SDS011;69727;53.132;8.230;2023-11-19T09:46:12;23.35;;;4.05;;
80400;SDS011;69727;53.132;8.230;2023-11-19T09:48:40;25.60;;;5.32;;
80400;SDS011;69727;53.132;8.230;2023-11-19T09:51:09;25.50;;;4.95;;
80400;SDS011;69727;53.132;8.230;2023-11-19T09:53:36;26.20;;;5.07;;
80400;SDS011;69727;53.132;8.230;2023-11-19T09:56:02;29.20;;;4.95;;
80400;SDS011;69727;53.132;8.230;2023-11-19T09:58:29;35.67;;;5.22;;
80400;SDS011;69727;53.132;8.230;2023-11-19T10:00:55;31.00;;;5.05;;
80400;SDS011;69727;53.132;8.230;2023-11-19T10:03:23;28.63;;;4.93;;
80400;SDS011;69727;53.132;8.230;2023-11-19T10:05:49;33.70;;;5.32;;
80400;SDS011;69727;53.132;8.230;2023-11-19T10:08:15;30.50;;;5.60;;
80400;SDS011;69727;53.132;8.230;2023-11-19T10:10:41;35.97;;;5.88;;
80400;SDS011;69727;53.132;8.230;2023-11-19T10:13:07;39.40;;;5.85;;
80400;SDS011;69727;53.132;8.230;2023-11-19T10:15:35;38.15;;;6.38;;
80400;SDS011;69727;53.132;8.230;2023-11-19T10:18:01;44.58;;;5.85;;
80400;SDS011;69727;53.132;8.230;2023-11-19T10:20:32;24.50;;;4.22;;
80400;SDS011;69727;53.132;8.230;2023-11-19T10:23:00;33.97;;;5.03;;
80400;SDS011;69727;53.132;8.230;2023-11-19T10:25:26;49.20;;;5.63;;
80400;SDS011;69727;53.132;8.230;2023-11-19T10:27:52;32.25;;;5.40;;
80400;SDS011;69727;53.132;8.230;2023-11-19T10:30:25;30.20;;;5.15;;
80400;SDS011;69727;53.132;8.230;2023-11-19T10:33:10;38.13;;;6.80;;
80400;SDS011;69727;53.132;8.230;2023-11-19T10:35:52;34.10;;;5.00;;
80400;SDS011;69727;53.132;8.230;2023-11-19T10:38:18;23.90;;;5.47;;
80400;SDS011;69727;53.132;8.230;2023-11-19T10:40:44;31.63;;;4.88;;
80400;SDS011;69727;53.132;8.230;2023-11-19T10:43:10;28.53;;;5.20;;
80400;SDS011;69727;53.132;8.230;2023-11-19T10:45:36;34.65;;;6.25;;
80400;SDS011;69727;53.132;8.230;2023-11-19T10:48:03;31.35;;;5.72;;
80400;SDS011;69727;53.132;8.230;2023-11-19T10:50:38;42.00;;;4.97;;
80400;SDS011;69727;53.132;8.230;2023-11-19T10:53:06;34.42;;;4.97;;
80400;SDS011;69727;53.132;8.230;2023-11-19T10:55:33;31.80;;;5.95;;
80400;SDS011;69727;53.132;8.230;2023-11-19T10:58:03;34.17;;;5.55;;
80400;SDS011;69727;53.132;8.230;2023-11-19T11:00:32;40.55;;;4.78;;
80400;SDS011;69727;53.132;8.230;2023-11-19T11:03:11;31.48;;;5.15;;
80400;SDS011;69727;53.132;8.230;2023-11-19T11:05:42;23.45;;;4.00;;
80400;SDS011;69727;53.132;8.230;2023-11-19T11:08:08;29.88;;;5.15;;
80400;SDS011;69727;53.132;8.230;2023-11-19T11:10:37;31.27;;;4.75;;
80400;SDS011;69727;53.132;8.230;2023-11-19T11:21:05;29.52;;;5.45;;
80400;SDS011;69727;53.132;8.230;2023-11-19T11:26:28;26.17;;;5.43;;
80400;SDS011;69727;53.132;8.230;2023-11-19T12:00:10;36.83;;;5.53;;
80400;SDS011;69727;53.132;8.230;2023-11-19T12:02:36;33.00;;;8.45;;
80400;SDS011;69727;53.132;8.230;2023-11-19T12:05:01;29.13;;;5.20;;
80400;SDS011;69727;53.132;8.230;2023-11-19T12:17:36;20.38;;;5.07;;
80400;SDS011;69727;53.132;8.230;2023-11-19T12:23:30;20.33;;;3.38;;
80400;SDS011;69727;53.132;8.230;2023-11-19T12:26:48;24.35;;;3.20;;
80400;SDS011;69727;53.132;8.230;2023-11-19T12:29:07;21.42;;;4.18;;
80400;SDS011;69727;53.132;8.230;2023-11-19T12:31:32;19.77;;;3.33;;
80400;SDS011;69727;53.132;8.230;2023-11-19T12:34:00;18.30;;;3.60;;
80400;SDS011;69727;53.132;8.230;2023-11-19T12:36:26;17.90;;;3.08;;
80400;SDS011;69727;53.132;8.230;2023-11-19T12:38:51;18.65;;;3.55;;
80400;SDS011;69727;53.132;8.230;2023-11-19T12:41:17;17.38;;;2.65;;
80400;SDS011;69727;53.132;8.230;2023-11-19T12:43:45;20.98;;;2.72;;
80400;SDS011;69727;53.132;8.230;2023-11-19T12:46:17;14.35;;;2.17;;
80400;SDS011;69727;53.132;8.230;2023-11-19T12:48:49;19.30;;;2.75;;
80400;SDS011;69727;53.132;8.230;2023-11-19T12:51:16;12.00;;;1.60;;
80400;SDS011;69727;53.132;8.230;2023-11-19T12:53:51;13.05;;;2.35;;
80400;SDS011;69727;53.132;8.230;2023-11-19T12:56:22;13.10;;;1.58;;
80400;SDS011;69727;53.132;8.230;2023-11-19T12:58:48;12.43;;;1.60;;
80400;SDS011;69727;53.132;8.230;2023-11-19T13:01:15;10.73;;;1.92;;
80400;SDS011;69727;53.132;8.230;2023-11-19T13:03:45;7.47;;;1.38;;
80400;SDS011;69727;53.132;8.230;2023-11-19T13:06:12;11.13;;;1.80;;
80400;SDS011;69727;53.132;8.230;2023-11-19T13:08:40;11.32;;;1.70;;
80400;SDS011;69727;53.132;8.230;2023-11-19T13:11:06;12.13;;;2.28;;
80400;SDS011;69727;53.132;8.230;2023-11-19T13:13:33;9.73;;;1.92;;
80400;SDS011;69727;53.132;8.230;2023-11-19T13:16:19;9.05;;;1.50;;
80400;SDS011;69727;53.132;8.230;2023-11-19T13:18:44;12.77;;;2.10;;
80400;SDS011;69727;53.132;8.230;2023-11-19T13:21:10;11.88;;;1.92;;
80400;SDS011;69727;53.132;8.230;2023-11-19T13:23:35;12.48;;;2.97;;
80400;SDS011;69727;53.132;8.230;2023-11-19T13:26:00;11.23;;;2.03;;
80400;SDS011;69727;53.132;8.230;2023-11-19T13:28:26;11.83;;;1.90;;
80400;SDS011;69727;53.132;8.230;2023-11-19T13:30:52;15.80;;;2.15;;
80400;SDS011;69727;53.132;8.230;2023-11-19T13:33:18;16.02;;;2.58;;
80400;SDS011;69727;53.132;8.230;2023-11-19T13:35:44;12.23;;;2.20;;
80400;SDS011;69727;53.132;8.230;2023-11-19T13:38:09;18.27;;;3.08;;
80400;SDS011;69727;53.132;8.230;2023-11-19T13:40:35;14.32;;;2.67;;
80400;SDS011;69727;53.132;8.230;2023-11-19T13:43:00;16.17;;;3.05;;
80400;SDS011;69727;53.132;8.230;2023-11-19T13:45:26;22.15;;;3.17;;
80400;SDS011;69727;53.132;8.230;2023-11-19T13:47:51;27.38;;;3.60;;
80400;SDS011;69727;53.132;8.230;2023-11-19T13:50:16;19.73;;;3.88;;
80400;SDS011;69727;53.132;8.230;2023-11-19T13:52:42;23.63;;;4.85;;
80400;SDS011;69727;53.132;8.230;2023-11-19T13:55:11;26.90;;;3.65;;
80400;SDS011;69727;53.132;8.230;2023-11-19T13:57:37;31.35;;;4.05;;
80400;SDS011;69727;53.132;8.230;2023-11-19T14:00:04;23.02;;;4.22;;
80400;SDS011;69727;53.132;8.230;2023-11-19T14:02:44;19.85;;;3.35;;
80400;SDS011;69727;53.132;8.230;2023-11-19T14:05:10;20.63;;;3.78;;
80400;SDS011;69727;53.132;8.230;2023-11-19T14:07:36;27.33;;;4.32;;
80400;SDS011;69727;53.132;8.230;2023-11-19T14:10:04;24.63;;;3.60;;
80400;SDS011;69727;53.132;8.230;2023-11-19T14:12:34;25.85;;;3.90;;
80400;SDS011;69727;53.132;8.230;2023-11-19T14:15:00;16.55;;;3.95;;
80400;SDS011;69727;53.132;8.230;2023-11-19T14:17:26;16.70;;;3.33;;
80400;SDS011;69727;53.132;8.230;2023-11-19T14:19:51;19.88;;;3.97;;
80400;SDS011;69727;53.132;8.230;2023-11-19T14:22:17;16.52;;;2.85;;
80400;SDS011;69727;53.132;8.230;2023-11-19T14:24:42;18.05;;;4.00;;
80400;SDS011;69727;53.132;8.230;2023-11-19T14:27:08;18.55;;;3.78;;
80400;SDS011;69727;53.132;8.230;2023-11-19T14:29:34;12.82;;;2.70;;
80400;SDS011;69727;53.132;8.230;2023-11-19T14:32:00;22.00;;;3.92;;
80400;SDS011;69727;53.132;8.230;2023-11-19T14:34:26;13.90;;;2.33;;
80400;SDS011;69727;53.132;8.230;2023-11-19T14:36:52;13.15;;;2.50;;
80400;SDS011;69727;53.132;8.230;2023-11-19T14:39:18;17.75;;;3.20;;
80400;SDS011;69727;53.132;8.230;2023-11-19T14:41:44;12.57;;;2.72;;
80400;SDS011;69727;53.132;8.230;2023-11-19T14:44:09;18.77;;;3.40;;
80400;SDS011;69727;53.132;8.230;2023-11-19T14:46:35;18.27;;;3.80;;
80400;SDS011;69727;53.132;8.230;2023-11-19T14:49:00;16.50;;;2.67;;
80400;SDS011;69727;53.132;8.230;2023-11-19T14:51:26;22.80;;;3.00;;
80400;SDS011;69727;53.132;8.230;2023-11-19T14:53:51;18.00;;;3.23;;
80400;SDS011;69727;53.132;8.230;2023-11-19T14:56:16;21.97;;;3.20;;
80400;SDS011;69727;53.132;8.230;2023-11-19T14:58:42;15.47;;;3.00;;
80400;SDS011;69727;53.132;8.230;2023-11-19T15:01:12;22.95;;;4.07;;
80400;SDS011;69727;53.132;8.230;2023-11-19T15:03:38;17.35;;;3.10;;
80400;SDS011;69727;53.132;8.230;2023-11-19T15:06:03;17.30;;;2.97;;
80400;SDS011;69727;53.132;8.230;2023-11-19T15:08:29;26.52;;;3.67;;
80400;SDS011;69727;53.132;8.230;2023-11-19T15:10:55;17.05;;;3.45;;
80400;SDS011;69727;53.132;8.230;2023-11-19T15:13:22;17.33;;;3.35;;
80400;SDS011;69727;53.132;8.230;2023-11-19T15:15:48;21.60;;;3.47;;
80400;SDS011;69727;53.132;8.230;2023-11-19T15:18:13;22.23;;;4.27;;
80400;SDS011;69727;53.132;8.230;2023-11-19T15:20:38;22.92;;;4.40;;
80400;SDS011;69727;53.132;8.230;2023-11-19T15:23:04;21.60;;;4.17;;
80400;SDS011;69727;53.132;8.230;2023-11-19T15:25:29;23.67;;;3.53;;
80400;SDS011;69727;53.132;8.230;2023-11-19T15:27:54;22.27;;;4.07;;
80400;SDS011;69727;53.132;8.230;2023-11-19T15:30:20;24.55;;;3.88;;